createdAt,value
2023-02-04T00:04:50.505Z,8
2023-02-04T00:09:50.512Z,8
2023-02-04T00:14:50.522Z,8
2023-02-04T00:19:50.744Z,8
2023-02-04T00:24:50.499Z,8
2023-02-04T00:29:50.585Z,8
2023-02-04T00:34:50.780Z,8
2023-02-04T00:39:50.857Z,9
2023-02-04T00:44:50.528Z,9
2023-02-04T00:49:50.500Z,9
2023-02-04T00:54:50.926Z,9
2023-02-04T00:59:50.828Z,9
2023-02-04T01:04:50.582Z,9
2023-02-04T01:09:50.675Z,9
2023-02-04T01:14:50.944Z,9
2023-02-04T01:19:50.957Z,9
2023-02-04T01:24:50.729Z,9
2023-02-04T01:29:50.558Z,9
2023-02-04T01:34:50.732Z,10
2023-02-04T01:39:50.623Z,10
2023-02-04T01:44:50.423Z,10
2023-02-04T01:49:52.650Z,10
2023-02-04T01:54:50.667Z,10
2023-02-04T01:59:50.462Z,10
2023-02-04T02:04:50.825Z,10
2023-02-04T02:09:50.513Z,10
2023-02-04T02:14:50.561Z,10
2023-02-04T02:19:50.668Z,10
2023-02-04T02:24:50.887Z,10
2023-02-04T02:29:51.041Z,10
2023-02-04T02:34:50.472Z,10
2023-02-04T02:39:50.672Z,10
2023-02-04T02:44:50.779Z,10
2023-02-04T02:49:50.332Z,9
2023-02-04T02:54:50.269Z,9
2023-02-04T02:59:50.619Z,9
2023-02-04T03:04:50.574Z,9
2023-02-04T03:09:50.460Z,9
2023-02-04T03:14:50.531Z,10
2023-02-04T03:19:50.258Z,9
2023-02-04T03:24:50.410Z,9
2023-02-04T03:29:51.005Z,10
2023-02-04T03:34:50.395Z,10
2023-02-04T03:39:50.549Z,10
2023-02-04T03:44:50.403Z,10
2023-02-04T03:49:50.565Z,9
2023-02-04T03:54:50.438Z,9
2023-02-04T03:59:50.545Z,9
2023-02-04T04:04:50.553Z,9
2023-02-04T04:09:50.552Z,9
2023-02-04T04:14:50.251Z,9
2023-02-04T04:19:50.469Z,9
2023-02-04T04:24:50.569Z,9
2023-02-04T04:29:50.306Z,9
2023-02-04T04:34:50.382Z,9
2023-02-04T04:39:50.334Z,9
2023-02-04T04:44:50.722Z,9
2023-02-04T04:49:50.489Z,9
2023-02-04T04:54:50.373Z,9
2023-02-04T04:59:50.342Z,9
2023-02-04T05:04:50.332Z,9
2023-02-04T05:09:50.355Z,9
2023-02-04T05:14:50.382Z,9
2023-02-04T05:19:50.454Z,9
2023-02-04T05:24:50.729Z,9
2023-02-04T05:29:50.279Z,9
2023-02-04T05:34:50.645Z,10
2023-02-04T05:39:50.325Z,10
2023-02-04T05:44:50.280Z,10
2023-02-04T05:49:50.427Z,11
2023-02-04T05:54:50.386Z,11
2023-02-04T05:59:50.565Z,12
2023-02-04T06:04:50.514Z,12
2023-02-04T06:09:50.438Z,12
2023-02-04T06:14:50.589Z,12
2023-02-04T06:19:50.214Z,12
2023-02-04T06:24:50.784Z,12
2023-02-04T06:29:50.253Z,12
2023-02-04T06:34:50.153Z,12
2023-02-04T06:39:50.855Z,12
2023-02-04T06:44:50.384Z,12
2023-02-04T06:49:50.330Z,12
2023-02-04T06:54:50.191Z,12
2023-02-04T06:59:50.282Z,12
2023-02-04T07:04:50.318Z,12
2023-02-04T07:09:50.173Z,13
2023-02-04T07:14:50.653Z,12
2023-02-04T07:19:50.452Z,13
2023-02-04T07:24:50.287Z,13
2023-02-04T07:29:50.196Z,13
2023-02-04T07:34:50.383Z,13
2023-02-04T07:39:50.127Z,14
2023-02-04T07:44:50.123Z,14
2023-02-04T07:49:50.296Z,14
2023-02-04T07:54:50.650Z,14
2023-02-04T07:59:50.379Z,14
2023-02-04T08:04:50.331Z,15
2023-02-04T08:09:50.215Z,15
2023-02-04T08:14:50.198Z,15
2023-02-04T08:19:50.404Z,15
2023-02-04T08:24:50.209Z,15
2023-02-04T08:29:50.340Z,15
2023-02-04T08:34:50.044Z,16
2023-02-04T08:39:50.245Z,15
2023-02-04T08:44:50.271Z,15
2023-02-04T08:49:50.115Z,15
2023-02-04T08:54:50.563Z,15
2023-02-04T08:59:50.144Z,15
2023-02-04T09:04:50.210Z,15
2023-02-04T09:09:50.206Z,15
2023-02-04T09:14:50.266Z,15
2023-02-04T09:19:50.353Z,15
2023-02-04T09:24:50.025Z,15
2023-02-04T09:29:50.153Z,15
2023-02-04T09:34:50.123Z,15
2023-02-04T09:39:50.181Z,16
2023-02-04T09:44:51.560Z,16
2023-02-04T09:49:50.094Z,16
2023-02-04T09:54:50.144Z,16
2023-02-04T09:59:51.830Z,17
2023-02-04T10:04:50.090Z,17
2023-02-04T10:09:50.124Z,17
2023-02-04T10:14:50.135Z,18
2023-02-04T10:19:50.017Z,17
2023-02-04T10:24:50.110Z,17
2023-02-04T10:29:58.240Z,17
2023-02-04T10:34:50.245Z,17
2023-02-04T10:39:50.383Z,17
2023-02-04T10:44:51.171Z,16
2023-02-04T10:49:50.177Z,16
2023-02-04T10:54:50.088Z,16
2023-02-04T10:59:52.728Z,16
2023-02-04T11:04:50.462Z,16
2023-02-04T11:09:50.392Z,16
2023-02-04T11:14:50.062Z,15
2023-02-04T11:19:50.053Z,15
2023-02-04T11:24:50.143Z,15
2023-02-04T11:29:50.174Z,16
2023-02-04T11:34:50.168Z,15
2023-02-04T11:39:50.205Z,15
2023-02-04T11:44:50.140Z,14
2023-02-04T11:49:50.053Z,14
2023-02-04T11:54:50.205Z,14
2023-02-04T11:59:50.260Z,13
2023-02-04T12:04:52.096Z,13
2023-02-04T12:09:50.232Z,13
2023-02-04T12:14:50.395Z,13
2023-02-04T12:19:50.051Z,13
2023-02-04T12:24:50.144Z,12
2023-02-04T12:29:50.263Z,12
2023-02-04T12:34:50.081Z,12
2023-02-04T12:39:50.005Z,12
2023-02-04T12:44:50.185Z,12
2023-02-04T12:49:50.107Z,12
2023-02-04T12:54:49.887Z,11
2023-02-04T12:59:49.980Z,12
2023-02-04T13:04:49.795Z,11
2023-02-04T13:09:50.098Z,11
2023-02-04T13:14:50.119Z,11
2023-02-04T13:19:50.075Z,11
2023-02-04T13:24:50.261Z,11
2023-02-04T13:29:50.111Z,11
2023-02-04T13:34:50.006Z,11
2023-02-04T13:39:50.134Z,10
2023-02-04T13:44:50.145Z,10
2023-02-04T13:49:50.240Z,10
2023-02-04T13:54:50.251Z,10
2023-02-04T13:59:50.120Z,10
2023-02-04T14:04:49.936Z,9
2023-02-04T14:09:49.973Z,10
2023-02-04T14:14:49.951Z,9
2023-02-04T14:19:50.159Z,9
2023-02-04T14:24:49.926Z,9
2023-02-04T14:29:50.093Z,9
2023-02-04T14:34:50.069Z,9
2023-02-04T14:39:50.479Z,9
2023-02-04T14:44:49.874Z,9
2023-02-04T14:49:50.107Z,10
2023-02-04T14:54:49.777Z,10
2023-02-04T14:59:50.004Z,10
2023-02-04T15:04:49.924Z,10
2023-02-04T15:09:50.001Z,10
2023-02-04T15:14:50.079Z,10
2023-02-04T15:19:49.947Z,10
2023-02-04T15:24:50.046Z,11
2023-02-04T15:29:49.749Z,11
2023-02-04T15:34:49.708Z,11
2023-02-04T15:39:49.974Z,11
2023-02-04T15:44:49.751Z,11
2023-02-04T15:49:49.890Z,11
2023-02-04T15:54:50.589Z,11
2023-02-04T15:59:50.170Z,11
2023-02-04T16:04:49.978Z,12
2023-02-04T16:09:49.921Z,12
2023-02-04T16:14:49.810Z,12
2023-02-04T16:19:49.732Z,12
2023-02-04T16:24:49.698Z,12
2023-02-04T16:29:49.687Z,12
2023-02-04T16:34:50.007Z,12
2023-02-04T16:39:50.004Z,12
2023-02-04T16:44:50.024Z,11
2023-02-04T16:49:49.901Z,12
2023-02-04T16:54:49.935Z,12
2023-02-04T16:59:49.798Z,12
2023-02-04T17:04:49.751Z,13
2023-02-04T17:09:49.846Z,13
2023-02-04T17:14:50.022Z,13
2023-02-04T17:19:49.663Z,13
2023-02-04T17:24:49.857Z,13
2023-02-04T17:29:49.820Z,13
2023-02-04T17:34:49.939Z,13
2023-02-04T17:39:49.787Z,13
2023-02-04T17:44:49.951Z,14
2023-02-04T17:49:49.980Z,15
2023-02-04T17:54:50.139Z,15
2023-02-04T17:59:49.941Z,15
2023-02-04T18:04:49.935Z,16
2023-02-04T18:09:50.124Z,17
2023-02-04T18:14:50.167Z,17
2023-02-04T18:19:49.676Z,19
2023-02-04T18:24:49.728Z,20
2023-02-04T18:29:49.882Z,22
2023-02-04T18:34:49.800Z,23
2023-02-04T18:39:50.003Z,23
2023-02-04T18:44:50.055Z,24
2023-02-04T18:49:50.008Z,25
2023-02-04T18:54:49.595Z,25
2023-02-04T18:59:49.809Z,26
2023-02-04T19:04:49.754Z,28
2023-02-04T19:09:49.673Z,29
2023-02-04T19:14:49.685Z,31
2023-02-04T19:19:49.939Z,32
2023-02-04T19:24:51.932Z,33
2023-02-04T19:29:49.956Z,33
2023-02-04T19:34:49.599Z,33
2023-02-04T19:39:49.779Z,33
2023-02-04T19:44:49.749Z,34
2023-02-04T19:49:49.596Z,34
2023-02-04T19:54:50.054Z,34
2023-02-04T19:59:49.600Z,33
2023-02-04T20:04:49.816Z,33
2023-02-04T20:09:52.178Z,32
2023-02-04T20:14:49.866Z,32
2023-02-04T20:19:50.132Z,31
2023-02-04T20:24:49.574Z,30
2023-02-04T20:29:49.713Z,29
2023-02-04T20:34:49.908Z,28
2023-02-04T20:39:49.531Z,28
2023-02-04T20:44:49.642Z,29
2023-02-04T20:49:49.528Z,29
2023-02-04T20:54:49.515Z,29
2023-02-04T20:59:49.546Z,29
2023-02-04T21:04:49.697Z,30
2023-02-04T21:09:50.312Z,30
2023-02-04T21:14:49.537Z,30
2023-02-04T21:19:49.855Z,31
2023-02-04T21:24:49.483Z,31
2023-02-04T21:29:49.748Z,31
2023-02-04T21:34:49.730Z,31
2023-02-04T21:39:49.684Z,37
2023-02-04T21:44:49.780Z,36
2023-02-04T21:49:50.066Z,36
2023-02-04T21:54:49.665Z,37
2023-02-04T21:59:49.696Z,38
2023-02-04T22:04:49.533Z,38
2023-02-04T22:09:49.669Z,39
2023-02-04T22:14:49.449Z,39
2023-02-04T22:19:49.449Z,41
2023-02-04T22:24:49.462Z,42
2023-02-04T22:29:49.695Z,43
2023-02-04T22:34:49.670Z,44
2023-02-04T22:39:49.812Z,45
2023-02-04T22:44:49.556Z,45
2023-02-04T22:49:49.963Z,45
2023-02-04T22:54:49.666Z,47
2023-02-04T22:59:49.589Z,47
2023-02-04T23:04:50.143Z,49
2023-02-04T23:09:49.965Z,49
2023-02-04T23:14:49.903Z,49
2023-02-04T23:19:49.520Z,49
2023-02-04T23:24:49.483Z,49
2023-02-04T23:29:49.541Z,48
2023-02-04T23:34:49.574Z,48
2023-02-04T23:39:49.523Z,48
2023-02-04T23:44:49.865Z,48
2023-02-04T23:49:49.326Z,48
2023-02-04T23:54:49.556Z,47
2023-02-04T23:59:49.554Z,47
